Time;durP1;ratioP1;P1;durP2;ratioP2;P2;SDS_P1;SDS_P2;PMS_P1;PMS_P2;Temp;Humidity;BMP_temperature;BMP_pressure;BME280_temperature;BME280_humidity;BME280_pressure;Samples;Min_cycle;Max_cycle;Signal;HPM_P1;HPM_P2
2022/08/24 00:00:23;;;;;;;;;;;22.90;64.10;;;;;;5099956;28;19935;-67
2022/08/24 00:02:49;;;;;;;;;;;22.80;64.10;;;;;;5100489;28;19909;-68
2022/08/24 00:05:15;;;;;;;;;;;22.90;64.20;;;;;;5103626;28;19915;-68
2022/08/24 00:07:40;;;;;;;;;;;22.80;64.10;;;;;;5100616;28;19916;-69
2022/08/24 00:10:07;;;;;;;;;;;22.90;63.80;;;;;;5100251;28;19947;-67
2022/08/24 00:12:32;;;;;;;;;;;22.90;63.80;;;;;;5099859;28;19908;-70
2022/08/24 00:14:58;;;;;;;;;;;22.90;63.70;;;;;;5093437;28;19977;-70
2022/08/24 00:17:24;;;;;;;;;;;22.90;63.80;;;;;;5093333;28;19916;-69
2022/08/24 00:19:50;;;;;;;;;;;22.90;64.00;;;;;;5093377;28;19923;-72
2022/08/24 00:22:16;;;;;;;;;;;22.90;63.90;;;;;;5093338;28;20368;-66
2022/08/24 00:24:41;;;;;;;;;;;22.80;64.10;;;;;;5093233;28;19915;-69
2022/08/24 00:27:07;;;;;;;;;;;22.80;64.20;;;;;;5096982;28;20015;-70
2022/08/24 00:29:33;;;;;;;;;;;22.80;64.40;;;;;;5097528;28;19908;-71
2022/08/24 00:31:58;;;;;;;;;;;22.70;64.50;;;;;;5097475;28;19915;-66
2022/08/24 00:34:25;;;;;;;;;;;22.80;64.40;;;;;;5097490;28;19908;-66
2022/08/24 00:36:52;;;;;;;;;;;22.60;64.80;;;;;;5097150;28;19914;-71
2022/08/24 00:39:17;;;;;;;;;;;22.60;65.00;;;;;;5097120;28;20279;-67
2022/08/24 00:41:45;;;;;;;;;;;22.60;65.10;;;;;;5097045;28;20031;-67
2022/08/24 00:44:13;;;;;;;;;;;22.60;65.00;;;;;;5097183;28;19919;-69
2022/08/24 00:46:42;;;;;;;;;;;22.60;65.00;;;;;;5097070;28;20279;-66
2022/08/24 00:49:20;;;;;;;;;;;22.60;65.20;;;;;;5096744;28;20413;-67
2022/08/24 00:51:50;;;;;;;;;;;22.60;65.20;;;;;;5096650;28;19931;-66
2022/08/24 00:54:16;;;;;;;;;;;22.60;65.00;;;;;;5096929;28;20391;-68
2022/08/24 00:56:45;;;;;;;;;;;22.50;65.40;;;;;;5097057;28;19908;-66
2022/08/24 00:59:13;;;;;;;;;;;22.50;65.50;;;;;;5096919;28;19970;-68
2022/08/24 01:01:39;;;;;;;;;;;22.50;65.60;;;;;;5096721;28;19963;-65
2022/08/24 01:04:05;;;;;;;;;;;22.50;65.70;;;;;;5096733;28;19908;-66
2022/08/24 01:06:32;;;;;;;;;;;22.40;65.70;;;;;;5096583;28;19944;-71
2022/08/24 01:08:58;;;;;;;;;;;22.40;66.10;;;;;;5096367;28;19909;-70
2022/08/24 01:11:26;;;;;;;;;;;22.40;66.00;;;;;;5096739;28;19961;-68
2022/08/24 01:13:52;;;;;;;;;;;22.40;65.80;;;;;;5096247;28;19908;-72
2022/08/24 01:18:48;;;;;;;;;;;22.40;66.60;;;;;;5096202;28;19995;-66
2022/08/24 01:19:11;;;;;;;;;;;22.40;66.10;;;;;;5095908;28;19965;-71
2022/08/24 01:21:43;;;;;;;;;;;22.40;66.10;;;;;;5096121;28;19923;-70
2022/08/24 01:24:12;;;;;;;;;;;22.40;66.00;;;;;;5096373;28;19930;-66
2022/08/24 01:26:40;;;;;;;;;;;22.40;66.40;;;;;;5096045;28;19908;-70
2022/08/24 01:29:09;;;;;;;;;;;22.30;66.40;;;;;;5096113;28;20267;-70
2022/08/24 01:31:34;;;;;;;;;;;22.30;66.60;;;;;;5096004;28;19994;-68
2022/08/24 01:34:00;;;;;;;;;;;22.30;66.90;;;;;;5096114;28;19935;-68
2022/08/24 01:36:31;;;;;;;;;;;22.40;66.80;;;;;;5095547;28;19950;-65
2022/08/24 01:38:59;;;;;;;;;;;22.40;67.50;;;;;;5095569;28;19915;-67
2022/08/24 01:41:25;;;;;;;;;;;22.20;67.30;;;;;;5094418;28;19923;-66
2022/08/24 01:43:50;;;;;;;;;;;22.30;67.00;;;;;;5095704;28;19908;-66
2022/08/24 01:46:16;;;;;;;;;;;22.30;67.00;;;;;;5095699;28;19912;-66
2022/08/24 01:48:41;;;;;;;;;;;22.30;67.00;;;;;;5095908;28;19946;-66
2022/08/24 01:51:07;;;;;;;;;;;22.30;67.00;;;;;;5095429;28;19999;-68
2022/08/24 01:53:33;;;;;;;;;;;22.40;66.60;;;;;;5095734;28;19908;-69
2022/08/24 01:55:58;;;;;;;;;;;22.30;67.00;;;;;;5095437;28;19912;-66
2022/08/24 01:58:24;;;;;;;;;;;22.20;67.80;;;;;;5095608;28;19908;-66
2022/08/24 02:00:49;;;;;;;;;;;22.00;68.70;;;;;;5095347;28;19968;-64
2022/08/24 02:03:15;;;;;;;;;;;21.80;70.10;;;;;;5095224;28;19915;-67
2022/08/24 02:05:40;;;;;;;;;;;21.80;70.10;;;;;;5095199;28;19954;-71
2022/08/24 02:08:06;;;;;;;;;;;21.60;70.60;;;;;;5095433;28;19915;-71
2022/08/24 02:10:32;;;;;;;;;;;21.70;70.60;;;;;;5095237;28;19908;-71
2022/08/24 02:12:57;;;;;;;;;;;21.70;71.40;;;;;;5095115;28;20367;-70
2022/08/24 02:15:31;;;;;;;;;;;21.70;70.80;;;;;;5093640;28;19908;-69
2022/08/24 02:17:57;;;;;;;;;;;21.70;71.10;;;;;;5095093;28;19943;-67
2022/08/24 02:20:22;;;;;;;;;;;21.70;71.30;;;;;;5094902;28;19953;-66
2022/08/24 02:22:49;;;;;;;;;;;21.70;70.80;;;;;;5095073;28;19916;-66
2022/08/24 02:25:15;;;;;;;;;;;21.60;71.20;;;;;;5095187;28;19908;-68
2022/08/24 02:27:41;;;;;;;;;;;21.60;71.50;;;;;;5094763;28;19908;-70
2022/08/24 02:30:07;;;;;;;;;;;21.60;71.10;;;;;;5094772;28;19912;-70
2022/08/24 02:32:32;;;;;;;;;;;21.60;71.20;;;;;;5094753;28;19908;-67
2022/08/24 02:34:58;;;;;;;;;;;21.60;71.20;;;;;;5095008;28;20355;-66
2022/08/24 02:37:23;;;;;;;;;;;21.60;71.10;;;;;;5094863;28;19907;-66
2022/08/24 02:39:51;;;;;;;;;;;21.50;71.20;;;;;;5094610;28;19915;-66
2022/08/24 02:42:17;;;;;;;;;;;21.60;71.30;;;;;;5094499;28;20378;-64
2022/08/24 02:44:42;;;;;;;;;;;21.50;71.20;;;;;;5095084;28;19908;-64
2022/08/24 02:47:09;;;;;;;;;;;21.60;71.10;;;;;;5094693;28;19913;-65
2022/08/24 02:49:34;;;;;;;;;;;21.70;70.90;;;;;;5094305;28;20005;-66
2022/08/24 02:52:00;;;;;;;;;;;21.60;71.20;;;;;;5094409;28;19912;-69
2022/08/24 02:54:26;;;;;;;;;;;21.70;70.50;;;;;;5094394;28;20381;-70
2022/08/24 02:56:51;;;;;;;;;;;21.70;70.90;;;;;;5094179;28;19909;-68
2022/08/24 02:59:17;;;;;;;;;;;21.60;71.30;;;;;;5094619;28;19991;-66
2022/08/24 03:01:43;;;;;;;;;;;21.60;71.20;;;;;;5094371;28;19916;-67
2022/08/24 03:04:09;;;;;;;;;;;21.50;72.30;;;;;;5094332;28;20003;-65
2022/08/24 03:06:35;;;;;;;;;;;21.40;72.10;;;;;;5094188;28;20423;-65
2022/08/24 03:09:00;;;;;;;;;;;21.40;72.30;;;;;;5094384;28;19951;-67
2022/08/24 03:11:26;;;;;;;;;;;21.50;72.30;;;;;;5094338;28;20275;-70
2022/08/24 03:13:51;;;;;;;;;;;21.40;72.70;;;;;;5094085;28;20306;-67
2022/08/24 03:16:17;;;;;;;;;;;21.30;72.80;;;;;;5094139;28;20002;-68
2022/08/24 03:18:42;;;;;;;;;;;21.30;72.80;;;;;;5094339;28;19923;-67
2022/08/24 03:21:09;;;;;;;;;;;21.30;72.80;;;;;;5093902;28;19920;-67
2022/08/24 03:23:35;;;;;;;;;;;21.30;72.70;;;;;;5093937;28;19908;-66
2022/08/24 03:26:00;;;;;;;;;;;21.30;72.50;;;;;;5093937;28;20009;-65
2022/08/24 03:28:26;;;;;;;;;;;21.30;73.10;;;;;;5093761;28;19912;-66
2022/08/24 03:30:52;;;;;;;;;;;21.30;72.60;;;;;;5093734;28;19908;-67
2022/08/24 03:33:18;;;;;;;;;;;21.20;73.40;;;;;;5093847;28;19908;-71
2022/08/24 03:35:43;;;;;;;;;;;21.20;73.00;;;;;;5093760;28;19915;-68
2022/08/24 03:38:09;;;;;;;;;;;21.20;72.90;;;;;;5093616;28;19912;-65
2022/08/24 03:40:34;;;;;;;;;;;21.20;73.40;;;;;;5093677;28;20356;-65
2022/08/24 03:43:00;;;;;;;;;;;21.10;73.30;;;;;;5093720;28;20318;-66
2022/08/24 03:45:26;;;;;;;;;;;21.20;73.20;;;;;;5093518;28;20309;-65
2022/08/24 03:47:52;;;;;;;;;;;21.30;72.00;;;;;;5093585;28;19915;-67
2022/08/24 03:50:19;;;;;;;;;;;21.30;72.10;;;;;;5093437;28;19908;-65
2022/08/24 03:52:44;;;;;;;;;;;21.30;72.10;;;;;;5093341;28;19961;-65
2022/08/24 03:55:10;;;;;;;;;;;21.30;72.20;;;;;;5093493;28;20382;-66
2022/08/24 03:57:36;;;;;;;;;;;21.20;72.80;;;;;;5093601;28;19912;-68
2022/08/24 04:00:06;;;;;;;;;;;21.00;74.20;;;;;;5093598;28;19908;-66
2022/08/24 04:02:32;;;;;;;;;;;21.00;74.30;;;;;;5097370;28;19966;-66
2022/08/24 04:04:58;;;;;;;;;;;20.90;74.50;;;;;;5097574;28;19951;-67
2022/08/24 04:07:23;;;;;;;;;;;20.80;74.90;;;;;;5097819;28;19915;-65
2022/08/24 04:09:49;;;;;;;;;;;20.80;75.20;;;;;;5097233;28;20412;-66
2022/08/24 04:12:14;;;;;;;;;;;20.80;75.20;;;;;;5097717;28;19908;-65
2022/08/24 04:14:40;;;;;;;;;;;20.60;75.70;;;;;;5096118;28;19916;-66
2022/08/24 04:17:05;;;;;;;;;;;20.70;75.40;;;;;;5097507;28;20374;-65
2022/08/24 04:19:32;;;;;;;;;;;20.70;75.10;;;;;;5097647;28;19923;-69
2022/08/24 04:21:58;;;;;;;;;;;20.80;74.50;;;;;;5095991;28;19920;-66
2022/08/24 04:24:23;;;;;;;;;;;20.70;75.40;;;;;;5097409;28;19954;-69
2022/08/24 04:26:49;;;;;;;;;;;20.60;76.00;;;;;;5097284;28;20044;-71
2022/08/24 04:29:16;;;;;;;;;;;20.60;75.70;;;;;;5097724;28;20331;-71
2022/08/24 04:31:42;;;;;;;;;;;20.60;75.30;;;;;;5097507;28;19920;-73
2022/08/24 04:34:08;;;;;;;;;;;20.50;76.50;;;;;;5097511;28;20321;-70
2022/08/24 04:36:34;;;;;;;;;;;20.50;76.60;;;;;;5096960;28;20003;-71
2022/08/24 04:39:00;;;;;;;;;;;20.50;75.60;;;;;;5097105;28;20001;-70
2022/08/24 04:41:26;;;;;;;;;;;20.60;76.10;;;;;;5096968;28;19916;-71
2022/08/24 04:43:51;;;;;;;;;;;20.60;75.70;;;;;;5097816;28;20356;-66
2022/08/24 04:46:18;;;;;;;;;;;20.60;75.60;;;;;;5097367;28;20363;-65
2022/08/24 04:48:45;;;;;;;;;;;20.50;76.50;;;;;;5096324;28;20252;-67
2022/08/24 04:51:12;;;;;;;;;;;20.50;76.90;;;;;;5097837;28;19908;-67
2022/08/24 04:53:38;;;;;;;;;;;20.50;76.80;;;;;;5097124;28;19912;-67
2022/08/24 04:56:10;;;;;;;;;;;20.40;77.20;;;;;;5097213;28;19961;-64
2022/08/24 04:58:35;;;;;;;;;;;20.50;77.10;;;;;;5097078;28;19915;-68
2022/08/24 05:01:05;;;;;;;;;;;20.40;77.70;;;;;;5096670;28;19916;-65
2022/08/24 05:03:30;;;;;;;;;;;20.40;77.40;;;;;;5096249;28;20003;-65
2022/08/24 05:05:56;;;;;;;;;;;20.40;76.80;;;;;;5096336;28;20344;-65
2022/08/24 05:08:22;;;;;;;;;;;20.30;77.40;;;;;;5095389;28;19999;-66
2022/08/24 05:10:48;;;;;;;;;;;20.40;77.50;;;;;;5096461;28;19908;-66
2022/08/24 05:13:14;;;;;;;;;;;20.40;77.20;;;;;;5096790;28;19912;-65
2022/08/24 05:15:41;;;;;;;;;;;20.40;77.40;;;;;;5096514;28;20416;-66
2022/08/24 05:18:07;;;;;;;;;;;20.40;77.80;;;;;;5096324;28;20279;-65
2022/08/24 05:20:34;;;;;;;;;;;20.40;78.10;;;;;;5096480;28;19919;-67
2022/08/24 05:23:00;;;;;;;;;;;20.40;77.90;;;;;;5096336;28;19965;-66
2022/08/24 05:25:26;;;;;;;;;;;20.30;78.40;;;;;;5096384;28;19908;-65
2022/08/24 05:27:51;;;;;;;;;;;20.40;78.60;;;;;;5096316;28;19908;-66
2022/08/24 05:30:17;;;;;;;;;;;20.40;78.30;;;;;;5095916;28;19912;-65
2022/08/24 05:32:42;;;;;;;;;;;20.50;78.00;;;;;;5096348;28;19999;-65
2022/08/24 05:35:08;;;;;;;;;;;20.50;77.40;;;;;;5096354;28;20380;-65
2022/08/24 05:37:35;;;;;;;;;;;20.60;77.40;;;;;;5095901;28;19947;-66
2022/08/24 05:40:01;;;;;;;;;;;20.70;77.10;;;;;;5095796;28;19916;-68
2022/08/24 05:42:26;;;;;;;;;;;20.60;77.10;;;;;;5094696;28;20030;-64
2022/08/24 05:44:52;;;;;;;;;;;20.60;76.90;;;;;;5096130;28;19955;-65
2022/08/24 05:47:17;;;;;;;;;;;20.70;77.70;;;;;;5095922;28;19915;-67
2022/08/24 05:49:44;;;;;;;;;;;20.60;77.30;;;;;;5095687;28;19916;-66
2022/08/24 05:52:10;;;;;;;;;;;20.60;78.10;;;;;;5095902;28;19989;-65
2022/08/24 05:54:35;;;;;;;;;;;20.60;79.20;;;;;;5096093;28;19909;-65
2022/08/24 05:57:03;;;;;;;;;;;20.70;78.00;;;;;;5095702;28;19916;-65
2022/08/24 05:59:29;;;;;;;;;;;20.70;78.30;;;;;;5095513;28;19908;-64
2022/08/24 06:01:55;;;;;;;;;;;20.90;76.30;;;;;;5095702;28;19916;-67
2022/08/24 06:04:21;;;;;;;;;;;20.80;77.50;;;;;;5095617;28;20355;-66
2022/08/24 06:06:47;;;;;;;;;;;21.10;77.10;;;;;;5095440;28;19908;-66
2022/08/24 06:09:13;;;;;;;;;;;21.60;76.10;;;;;;5095520;28;19908;-65
2022/08/24 06:11:39;;;;;;;;;;;22.10;74.70;;;;;;5095336;28;20371;-66
2022/08/24 06:14:12;;;;;;;;;;;22.50;71.90;;;;;;5094239;28;19908;-66
2022/08/24 06:16:40;;;;;;;;;;;23.00;69.70;;;;;;5095184;28;20007;-65
2022/08/24 06:19:07;;;;;;;;;;;23.40;68.40;;;;;;5094799;28;19920;-65
2022/08/24 06:21:33;;;;;;;;;;;23.60;66.40;;;;;;5095369;28;19928;-66
2022/08/24 06:23:59;;;;;;;;;;;23.90;64.70;;;;;;5094839;28;19908;-65
2022/08/24 06:29:09;;;;;;;;;;;24.50;64.60;;;;;;5095355;28;19916;-65
2022/08/24 06:31:36;;;;;;;;;;;24.80;62.00;;;;;;5095107;28;19908;-66
2022/08/24 06:34:02;;;;;;;;;;;24.80;62.50;;;;;;5095006;28;19919;-65
2022/08/24 06:36:27;;;;;;;;;;;24.80;61.10;;;;;;5095161;28;19995;-65
2022/08/24 06:38:53;;;;;;;;;;;25.00;60.00;;;;;;5094799;28;19912;-66
2022/08/24 06:41:20;;;;;;;;;;;25.00;61.40;;;;;;5094851;28;19916;-68
2022/08/24 06:43:46;;;;;;;;;;;25.30;59.40;;;;;;5094787;28;19999;-65
2022/08/24 06:46:12;;;;;;;;;;;25.20;59.00;;;;;;5094846;28;19944;-66
2022/08/24 06:48:38;;;;;;;;;;;25.50;59.00;;;;;;5094930;28;19912;-71
2022/08/24 06:51:10;;;;;;;;;;;25.50;57.30;;;;;;5094438;28;20314;-66
2022/08/24 06:53:36;;;;;;;;;;;25.80;56.30;;;;;;5094904;28;19961;-66
2022/08/24 06:56:01;;;;;;;;;;;25.70;56.40;;;;;;5094853;28;19908;-65
2022/08/24 06:58:27;;;;;;;;;;;25.70;56.90;;;;;;5094569;28;19916;-66
2022/08/24 07:00:54;;;;;;;;;;;26.00;56.60;;;;;;5094395;28;20293;-66
2022/08/24 07:03:21;;;;;;;;;;;26.10;55.40;;;;;;5094481;28;19947;-65
2022/08/24 07:05:50;;;;;;;;;;;26.20;55.40;;;;;;5094449;28;20359;-67
2022/08/24 07:08:16;;;;;;;;;;;26.40;55.50;;;;;;5093305;28;19908;-65
2022/08/24 07:10:42;;;;;;;;;;;26.50;54.80;;;;;;5094460;28;19915;-65
2022/08/24 07:13:09;;;;;;;;;;;26.70;54.40;;;;;;5094484;28;19918;-66
2022/08/24 07:15:34;;;;;;;;;;;26.80;54.20;;;;;;5094700;28;19915;-67
2022/08/24 07:18:00;;;;;;;;;;;26.60;53.10;;;;;;5094622;28;19920;-65
2022/08/24 07:20:28;;;;;;;;;;;26.40;53.50;;;;;;5094541;28;19908;-65
2022/08/24 07:22:54;;;;;;;;;;;26.70;54.00;;;;;;5095173;28;20367;-66
2022/08/24 07:25:19;;;;;;;;;;;26.70;53.20;;;;;;5105509;28;19915;-67
2022/08/24 07:27:46;;;;;;;;;;;26.70;53.50;;;;;;5111651;28;19908;-67
2022/08/24 07:30:12;;;;;;;;;;;26.70;53.60;;;;;;5109690;28;19915;-70
2022/08/24 07:32:37;;;;;;;;;;;26.80;53.80;;;;;;5106122;28;20283;-65
2022/08/24 07:35:03;;;;;;;;;;;26.90;53.40;;;;;;5109618;28;19908;-67
2022/08/24 07:37:29;;;;;;;;;;;26.70;53.40;;;;;;5109307;28;19908;-66
2022/08/24 07:39:55;;;;;;;;;;;26.70;53.70;;;;;;5095247;28;19909;-65
2022/08/24 07:42:22;;;;;;;;;;;26.40;53.80;;;;;;5094316;28;19982;-65
2022/08/24 07:44:47;;;;;;;;;;;26.20;54.20;;;;;;5094346;28;20283;-65
2022/08/24 07:47:13;;;;;;;;;;;26.00;54.30;;;;;;5094289;28;19908;-66
2022/08/24 07:49:39;;;;;;;;;;;25.80;55.20;;;;;;5093806;28;20336;-65
2022/08/24 07:52:05;;;;;;;;;;;25.70;55.40;;;;;;5093938;28;19915;-66
2022/08/24 07:54:30;;;;;;;;;;;25.70;55.80;;;;;;5093770;28;19908;-66
2022/08/24 07:56:58;;;;;;;;;;;25.50;55.60;;;;;;5093672;28;20388;-66
2022/08/24 07:59:24;;;;;;;;;;;25.50;55.40;;;;;;5093577;28;19923;-65
2022/08/24 08:01:50;;;;;;;;;;;25.60;55.70;;;;;;5094152;28;19922;-65
2022/08/24 08:04:20;;;;;;;;;;;25.60;55.60;;;;;;5093995;28;20386;-66
2022/08/24 08:06:46;;;;;;;;;;;25.60;55.40;;;;;;5093602;28;20323;-64
2022/08/24 08:09:11;;;;;;;;;;;25.60;55.40;;;;;;5093686;28;20007;-65
2022/08/24 08:11:37;;;;;;;;;;;25.70;55.20;;;;;;5093903;28;19912;-65
2022/08/24 08:14:03;;;;;;;;;;;25.70;55.40;;;;;;5093708;28;19912;-66
2022/08/24 08:16:28;;;;;;;;;;;25.90;55.40;;;;;;5093584;28;20359;-65
2022/08/24 08:18:54;;;;;;;;;;;25.90;54.60;;;;;;5093301;28;19920;-64
2022/08/24 08:24:16;;;;;;;;;;;26.40;54.40;;;;;;5093646;28;19989;-66
2022/08/24 08:26:43;;;;;;;;;;;26.50;53.00;;;;;;5093622;28;19908;-64
2022/08/24 08:29:09;;;;;;;;;;;26.50;53.50;;;;;;5093488;28;19908;-65
2022/08/24 08:31:35;;;;;;;;;;;26.60;53.20;;;;;;5093384;28;19969;-65
2022/08/24 08:34:01;;;;;;;;;;;26.80;52.70;;;;;;5093479;28;20310;-65
2022/08/24 08:36:26;;;;;;;;;;;26.90;52.40;;;;;;5093485;28;19908;-65
2022/08/24 08:38:52;;;;;;;;;;;27.00;51.80;;;;;;5093665;28;20348;-65
2022/08/24 08:41:34;;;;;;;;;;;27.20;51.90;;;;;;5093334;28;19920;-65
2022/08/24 08:44:26;;;;;;;;;;;27.20;52.10;;;;;;5093336;28;19920;-65
2022/08/24 08:47:10;;;;;;;;;;;27.20;51.50;;;;;;5094946;28;19908;-66
2022/08/24 08:49:55;;;;;;;;;;;27.30;51.50;;;;;;5097166;28;19908;-65
2022/08/24 08:52:27;;;;;;;;;;;27.20;51.40;;;;;;5097242;28;19908;-65
2022/08/24 08:55:07;;;;;;;;;;;27.20;51.60;;;;;;5097444;28;19908;-65
2022/08/24 08:57:53;;;;;;;;;;;26.90;51.30;;;;;;5096924;28;19935;-64
2022/08/24 09:00:21;;;;;;;;;;;26.80;52.00;;;;;;5097178;28;19954;-70
2022/08/24 09:02:49;;;;;;;;;;;26.50;51.90;;;;;;5097121;28;19916;-65
2022/08/24 09:05:38;;;;;;;;;;;26.70;51.80;;;;;;5096880;28;19915;-66
2022/08/24 09:08:35;;;;;;;;;;;26.70;52.00;;;;;;5077205;28;19915;-71
2022/08/24 09:11:20;;;;;;;;;;;26.60;51.70;;;;;;5061952;28;19908;-65
2022/08/24 09:13:52;;;;;;;;;;;26.70;52.30;;;;;;5096666;28;20275;-65
2022/08/24 09:16:40;;;;;;;;;;;26.70;52.00;;;;;;5096535;28;19951;-66
2022/08/24 09:19:06;;;;;;;;;;;26.70;52.30;;;;;;5090472;28;19967;-65
2022/08/24 09:21:50;;;;;;;;;;;26.70;52.20;;;;;;5096567;28;19964;-65
2022/08/24 09:24:25;;;;;;;;;;;26.70;51.70;;;;;;5096486;28;19908;-65
2022/08/24 09:26:56;;;;;;;;;;;26.80;51.70;;;;;;5096205;28;19908;-65
2022/08/24 09:29:27;;;;;;;;;;;26.80;51.30;;;;;;5096159;28;19914;-65
2022/08/24 09:32:14;;;;;;;;;;;26.80;51.00;;;;;;5094952;28;19915;-66
2022/08/24 09:34:46;;;;;;;;;;;26.80;51.40;;;;;;5096057;28;19995;-66
2022/08/24 09:37:27;;;;;;;;;;;26.70;51.80;;;;;;5096115;28;19916;-64
2022/08/24 09:39:52;;;;;;;;;;;26.70;52.00;;;;;;5096149;28;19922;-67
2022/08/24 09:42:21;;;;;;;;;;;26.80;51.20;;;;;;5095974;28;20264;-66
2022/08/24 09:44:57;;;;;;;;;;;27.00;52.10;;;;;;5095859;28;20275;-65
2022/08/24 09:48:01;;;;;;;;;;;27.00;50.80;;;;;;5096126;28;19908;-66
2022/08/24 09:50:45;;;;;;;;;;;27.00;51.00;;;;;;5053428;28;20380;-66
2022/08/24 09:53:11;;;;;;;;;;;27.10;51.10;;;;;;5053400;28;20400;-66
2022/08/24 09:55:37;;;;;;;;;;;27.10;50.70;;;;;;5053400;28;19931;-65
2022/08/24 09:58:08;;;;;;;;;;;27.10;50.20;;;;;;5035887;28;20427;-65
2022/08/24 10:00:41;;;;;;;;;;;27.00;50.40;;;;;;5053402;28;19908;-63
2022/08/24 10:03:12;;;;;;;;;;;27.00;51.00;;;;;;5053516;28;20060;-65
2022/08/24 10:05:38;;;;;;;;;;;27.00;50.00;;;;;;5053357;28;19913;-66
2022/08/24 10:08:12;;;;;;;;;;;27.10;50.40;;;;;;5053332;28;19909;-66
2022/08/24 10:10:44;;;;;;;;;;;27.20;50.60;;;;;;5036358;28;19913;-64
2022/08/24 10:13:30;;;;;;;;;;;27.30;50.30;;;;;;5036509;28;20009;-66
2022/08/24 10:16:02;;;;;;;;;;;27.30;49.70;;;;;;5013596;28;19921;-64
2022/08/24 10:18:33;;;;;;;;;;;27.10;49.70;;;;;;5013302;28;19926;-65
2022/08/24 10:21:11;;;;;;;;;;;27.00;50.20;;;;;;5021433;28;19971;-65
2022/08/24 10:23:45;;;;;;;;;;;27.10;49.90;;;;;;5032971;28;20305;-66
2022/08/24 10:26:29;;;;;;;;;;;27.20;50.50;;;;;;5032968;28;19917;-65
2022/08/24 10:29:17;;;;;;;;;;;27.30;50.50;;;;;;5032767;28;19909;-65
2022/08/24 10:31:53;;;;;;;;;;;27.40;50.20;;;;;;5032522;28;19909;-66
2022/08/24 10:34:21;;;;;;;;;;;27.50;51.00;;;;;;5032846;28;19910;-66
2022/08/24 10:36:55;;;;;;;;;;;27.70;50.30;;;;;;5032845;28;19910;-65
2022/08/24 10:39:42;;;;;;;;;;;27.70;49.10;;;;;;5032762;28;20361;-65
2022/08/24 10:45:30;;;;;;;;;;;28.00;49.90;;;;;;5032672;28;20004;-66
2022/08/24 10:48:04;;;;;;;;;;;28.00;48.80;;;;;;5032364;28;20301;-66
2022/08/24 10:50:38;;;;;;;;;;;28.20;49.70;;;;;;5032440;28;19910;-65
2022/08/24 10:53:24;;;;;;;;;;;28.30;48.70;;;;;;5064495;28;19908;-65
2022/08/24 10:56:04;;;;;;;;;;;28.40;48.20;;;;;;5094487;28;20282;-66
2022/08/24 10:58:50;;;;;;;;;;;28.40;48.20;;;;;;5094892;28;19915;-65
2022/08/24 11:01:16;;;;;;;;;;;28.40;48.60;;;;;;5094604;28;20406;-65
2022/08/24 11:03:50;;;;;;;;;;;28.60;48.70;;;;;;5094328;28;19947;-65
2022/08/24 11:06:17;;;;;;;;;;;28.70;48.30;;;;;;5094301;28;19961;-66
2022/08/24 11:08:57;;;;;;;;;;;28.60;47.60;;;;;;5094458;28;20004;-67
2022/08/24 11:11:42;;;;;;;;;;;28.70;47.30;;;;;;5094228;28;20375;-67
2022/08/24 11:14:14;;;;;;;;;;;28.70;47.80;;;;;;5094451;28;19912;-71
2022/08/24 11:16:41;;;;;;;;;;;28.80;47.40;;;;;;5094387;28;20284;-69
2022/08/24 11:19:08;;;;;;;;;;;28.60;46.60;;;;;;5092680;28;19994;-67
2022/08/24 11:21:36;;;;;;;;;;;28.60;47.10;;;;;;5094037;28;19920;-66
2022/08/24 11:24:04;;;;;;;;;;;28.70;47.60;;;;;;5094302;28;19908;-65
2022/08/24 11:26:30;;;;;;;;;;;28.80;47.50;;;;;;5094141;28;19961;-65
2022/08/24 11:28:59;;;;;;;;;;;28.30;46.40;;;;;;5094209;28;19908;-66
2022/08/24 11:31:31;;;;;;;;;;;28.30;47.90;;;;;;5092947;28;19943;-64
2022/08/24 11:34:08;;;;;;;;;;;28.30;47.60;;;;;;5093909;28;19962;-65
2022/08/24 11:36:34;;;;;;;;;;;28.50;48.40;;;;;;5093867;28;20344;-66
2022/08/24 11:39:18;;;;;;;;;;;28.80;47.80;;;;;;5094132;28;19908;-66
2022/08/24 11:41:47;;;;;;;;;;;28.80;47.30;;;;;;5093790;28;20386;-65
2022/08/24 11:44:31;;;;;;;;;;;28.90;46.70;;;;;;5093891;28;19908;-64
2022/08/24 11:47:02;;;;;;;;;;;28.80;46.10;;;;;;5094029;28;19920;-65
2022/08/24 11:49:30;;;;;;;;;;;28.80;47.20;;;;;;5093877;28;19918;-67
2022/08/24 11:51:58;;;;;;;;;;;29.00;46.10;;;;;;5093770;28;19912;-66
2022/08/24 11:54:42;;;;;;;;;;;29.00;46.10;;;;;;5094025;28;20334;-66
2022/08/24 11:57:08;;;;;;;;;;;29.00;46.20;;;;;;5093745;28;19962;-65
2022/08/24 11:59:52;;;;;;;;;;;29.20;47.10;;;;;;5093770;28;19951;-72
2022/08/24 12:02:32;;;;;;;;;;;29.10;45.70;;;;;;5092513;28;20310;-66
2022/08/24 12:05:24;;;;;;;;;;;29.10;46.50;;;;;;5093891;28;19999;-68
2022/08/24 12:07:55;;;;;;;;;;;29.10;47.10;;;;;;5091943;28;19908;-65
2022/08/24 12:10:35;;;;;;;;;;;29.20;46.40;;;;;;5106652;28;19948;-69
2022/08/24 12:13:16;;;;;;;;;;;29.10;46.00;;;;;;5112759;28;19908;-67
2022/08/24 12:15:46;;;;;;;;;;;29.10;45.70;;;;;;5112710;28;19919;-66
2022/08/24 12:18:16;;;;;;;;;;;29.10;45.80;;;;;;5101598;28;19928;-64
2022/08/24 12:20:43;;;;;;;;;;;29.00;46.20;;;;;;5110453;28;19912;-65
2022/08/24 12:23:15;;;;;;;;;;;29.00;45.80;;;;;;5112873;28;19941;-66
2022/08/24 12:26:00;;;;;;;;;;;29.00;45.90;;;;;;5108106;28;19908;-66
2022/08/24 12:28:44;;;;;;;;;;;29.10;45.30;;;;;;5098004;28;20428;-67
2022/08/24 12:31:13;;;;;;;;;;;29.20;46.30;;;;;;5098140;28;19953;-67
2022/08/24 12:33:42;;;;;;;;;;;29.20;46.60;;;;;;5097506;28;19919;-65
2022/08/24 12:36:28;;;;;;;;;;;29.20;45.10;;;;;;5097499;28;20343;-68
2022/08/24 12:39:02;;;;;;;;;;;29.20;45.20;;;;;;5096925;28;20023;-67
2022/08/24 12:41:31;;;;;;;;;;;29.10;45.40;;;;;;5097464;28;19920;-67
2022/08/24 12:44:10;;;;;;;;;;;29.20;44.70;;;;;;5097193;28;19908;-66
2022/08/24 12:46:36;;;;;;;;;;;29.20;44.70;;;;;;5095843;28;20272;-68
2022/08/24 12:49:06;;;;;;;;;;;29.10;44.60;;;;;;5097402;28;19915;-67
2022/08/24 12:51:50;;;;;;;;;;;29.10;45.20;;;;;;5097178;28;20267;-67
2022/08/24 12:54:21;;;;;;;;;;;29.10;45.40;;;;;;5097106;28;19909;-71
2022/08/24 12:57:02;;;;;;;;;;;29.20;44.90;;;;;;5097193;28;19951;-72
2022/08/24 12:59:31;;;;;;;;;;;29.30;45.20;;;;;;5096771;28;19908;-72
2022/08/24 13:01:56;;;;;;;;;;;29.50;45.70;;;;;;5096748;28;20359;-72
2022/08/24 13:04:30;;;;;;;;;;;29.70;44.40;;;;;;5096897;28;19998;-72
2022/08/24 13:07:05;;;;;;;;;;;29.60;44.10;;;;;;5096709;28;20002;-69
2022/08/24 13:09:32;;;;;;;;;;;29.60;44.30;;;;;;5096459;28;19908;-72
2022/08/24 13:11:59;;;;;;;;;;;29.50;44.20;;;;;;5096627;28;19908;-71
2022/08/24 13:14:27;;;;;;;;;;;29.40;43.80;;;;;;5096491;28;19908;-72
2022/08/24 13:16:55;;;;;;;;;;;29.30;43.70;;;;;;5096791;28;19946;-72
2022/08/24 13:19:27;;;;;;;;;;;29.40;44.00;;;;;;5096231;28;19920;-70
2022/08/24 13:21:52;;;;;;;;;;;29.40;44.60;;;;;;5095111;28;19920;-72
2022/08/24 13:24:27;;;;;;;;;;;29.50;43.80;;;;;;5096586;28;19915;-71
2022/08/24 13:26:56;;;;;;;;;;;29.60;43.90;;;;;;5096352;28;19915;-71
2022/08/24 13:29:24;;;;;;;;;;;29.60;43.80;;;;;;5096544;28;19912;-73
2022/08/24 13:31:52;;;;;;;;;;;29.60;44.40;;;;;;5096547;28;19909;-68
2022/08/24 13:34:20;;;;;;;;;;;29.60;43.90;;;;;;5095219;28;19912;-72
2022/08/24 13:36:50;;;;;;;;;;;29.60;44.30;;;;;;5096191;28;20409;-70
2022/08/24 13:39:16;;;;;;;;;;;29.60;44.10;;;;;;5096273;28;19908;-72
2022/08/24 13:41:45;;;;;;;;;;;29.60;44.00;;;;;;5096084;28;20003;-70
2022/08/24 13:44:20;;;;;;;;;;;29.70;43.30;;;;;;5095941;28;20006;-70
2022/08/24 13:46:49;;;;;;;;;;;29.50;43.60;;;;;;5095988;28;20284;-66
2022/08/24 13:49:17;;;;;;;;;;;29.40;44.10;;;;;;5095998;28;19908;-71
2022/08/24 13:51:49;;;;;;;;;;;29.50;43.60;;;;;;5096029;28;19950;-71
2022/08/24 13:54:22;;;;;;;;;;;29.50;44.10;;;;;;5096071;28;19908;-67
2022/08/24 13:56:50;;;;;;;;;;;29.40;43.30;;;;;;5095746;28;20015;-66
2022/08/24 13:59:21;;;;;;;;;;;29.40;43.40;;;;;;5095752;28;20021;-68
2022/08/24 14:01:49;;;;;;;;;;;29.40;43.60;;;;;;5095828;28;19968;-69
2022/08/24 14:04:24;;;;;;;;;;;29.30;44.40;;;;;;5095548;28;19996;-69
2022/08/24 14:06:49;;;;;;;;;;;29.50;44.90;;;;;;5094416;28;20344;-67
2022/08/24 14:09:15;;;;;;;;;;;29.40;44.60;;;;;;5095535;28;19930;-71
2022/08/24 14:11:52;;;;;;;;;;;29.30;44.50;;;;;;5095560;28;19908;-68
2022/08/24 14:14:24;;;;;;;;;;;29.40;44.90;;;;;;5093874;28;19912;-71
2022/08/24 14:19:43;;;;;;;;;;;29.50;44.40;;;;;;5095316;28;19927;-72
2022/08/24 14:22:08;;;;;;;;;;;29.60;44.40;;;;;;5095095;28;19916;-71
2022/08/24 14:24:37;;;;;;;;;;;29.60;44.10;;;;;;5095008;28;19908;-71
2022/08/24 14:27:05;;;;;;;;;;;29.50;44.80;;;;;;5095092;28;19912;-71
2022/08/24 14:29:33;;;;;;;;;;;29.40;44.70;;;;;;5095286;28;19952;-71
2022/08/24 14:31:59;;;;;;;;;;;29.40;44.80;;;;;;5095192;28;20287;-72
2022/08/24 14:34:24;;;;;;;;;;;29.30;44.30;;;;;;5095005;28;19930;-72
2022/08/24 14:36:50;;;;;;;;;;;29.40;43.80;;;;;;5094936;28;19916;-71
2022/08/24 14:39:29;;;;;;;;;;;29.20;43.10;;;;;;5094943;28;19912;-66